createdAt,value
2023-04-09T00:04:46.862Z,8.34
2023-04-09T00:09:49.713Z,8.32
2023-04-09T00:14:53.646Z,8.30
2023-04-09T00:19:56.276Z,8.28
2023-04-09T00:24:59.610Z,8.27
2023-04-09T00:30:03.527Z,8.29
2023-04-09T00:35:06.951Z,8.28
2023-04-09T00:40:09.849Z,8.27
2023-04-09T00:45:13.855Z,8.24
2023-04-09T00:50:17.738Z,8.19
2023-04-09T00:55:22.294Z,8.14
2023-04-09T01:00:27.646Z,8.16
2023-04-09T01:05:44.882Z,8.15
2023-04-09T01:10:55.259Z,8.13
2023-04-09T01:16:02.987Z,8.13
2023-04-09T01:21:10.870Z,8.13
2023-04-09T01:26:23.698Z,8.11
2023-04-09T01:31:31.757Z,8.06
2023-04-09T01:36:36.747Z,8.04
2023-04-09T01:41:41.315Z,8.08
2023-04-09T01:46:47.691Z,8.03
2023-04-09T01:51:51.200Z,8.01
2023-04-09T01:56:53.622Z,7.99
2023-04-09T02:02:02.363Z,7.97
2023-04-09T02:07:11.100Z,7.95
2023-04-09T02:12:17.440Z,7.92
2023-04-09T02:17:21.565Z,7.92
2023-04-09T02:22:24.265Z,7.94
2023-04-09T02:27:26.843Z,7.93
2023-04-09T02:32:30.932Z,7.90
2023-04-09T02:37:33.537Z,7.89
2023-04-09T02:42:36.097Z,7.88
2023-04-09T02:47:40.203Z,7.88
2023-04-09T02:52:42.765Z,7.88
2023-04-09T02:57:45.636Z,7.87
2023-04-09T03:02:49.715Z,7.85
2023-04-09T03:07:52.397Z,7.85
2023-04-09T03:12:54.984Z,7.84
2023-04-09T03:17:59.056Z,7.82
2023-04-09T03:23:01.676Z,7.77
2023-04-09T03:28:04.504Z,7.74
2023-04-09T03:33:08.507Z,7.75
2023-04-09T03:38:11.281Z,7.72
2023-04-09T03:43:13.916Z,7.72
2023-04-09T03:48:17.913Z,7.65
2023-04-09T03:53:20.507Z,7.66
2023-04-09T03:58:23.058Z,7.68
2023-04-09T04:03:27.187Z,7.64
2023-04-09T04:08:30.106Z,7.68
2023-04-09T04:13:32.751Z,7.68
2023-04-09T04:18:36.725Z,7.61
2023-04-09T04:23:39.256Z,7.55
2023-04-09T04:28:42.077Z,7.52
2023-04-09T04:33:46.022Z,7.46
2023-04-09T04:38:48.647Z,7.38
2023-04-09T04:43:51.256Z,7.19
2023-04-09T04:48:55.245Z,6.82
2023-04-09T04:53:57.843Z,6.44
2023-04-09T04:59:01.554Z,6.11
2023-04-09T05:04:05.588Z,5.87
2023-04-09T05:09:08.201Z,5.72
2023-04-09T05:14:10.906Z,5.60
2023-04-09T05:19:14.820Z,5.60
2023-04-09T05:24:17.411Z,5.63
2023-04-09T05:29:21.139Z,5.66
2023-04-09T05:34:25.220Z,5.68
2023-04-09T05:39:27.773Z,5.71
2023-04-09T05:44:30.584Z,5.78
2023-04-09T05:49:34.655Z,5.86
2023-04-09T05:54:37.286Z,5.98
2023-04-09T05:59:39.938Z,6.09
2023-04-09T06:04:43.943Z,6.28
2023-04-09T06:09:46.876Z,6.51
2023-04-09T06:14:49.626Z,6.65
2023-04-09T06:19:54.775Z,6.90
2023-04-09T06:24:57.310Z,7.11
2023-04-09T06:29:59.856Z,7.92
2023-04-09T06:35:03.837Z,9.80
2023-04-09T06:40:08.075Z,11.49
2023-04-09T06:45:12.053Z,12.15
2023-04-09T06:50:16.236Z,12.84
2023-04-09T06:55:19.364Z,13.26
2023-04-09T07:00:23.030Z,13.94
2023-04-09T07:05:27.062Z,14.54
2023-04-09T07:10:30.156Z,14.77
2023-04-09T07:15:32.924Z,15.36
2023-04-09T07:20:36.895Z,15.96
2023-04-09T07:25:39.514Z,16.39
2023-04-09T07:30:42.202Z,16.15
2023-04-09T07:35:46.961Z,16.37
2023-04-09T07:40:49.650Z,17.02
2023-04-09T07:45:52.524Z,16.71
2023-04-09T07:50:56.752Z,17.81
2023-04-09T07:55:59.419Z,17.49
2023-04-09T08:01:02.050Z,17.83
2023-04-09T08:06:06.620Z,16.58
2023-04-09T08:11:09.260Z,16.37
2023-04-09T08:16:11.840Z,16.05
2023-04-09T08:21:15.853Z,17.18
2023-04-09T08:26:18.651Z,16.20
2023-04-09T08:31:21.561Z,15.55
2023-04-09T08:36:26.385Z,16.73
2023-04-09T08:41:30.542Z,16.67
2023-04-09T08:46:37.169Z,18.10
2023-04-09T08:51:46.432Z,18.81
2023-04-09T08:56:49.134Z,19.32
2023-04-09T09:02:07.940Z,18.76
2023-04-09T09:07:12.067Z,18.73
2023-04-09T09:12:32.298Z,18.85
2023-04-09T09:17:53.915Z,19.23
2023-04-09T09:22:57.958Z,18.43
2023-04-09T09:28:09.387Z,19.72
2023-04-09T09:33:13.099Z,18.60
2023-04-09T09:38:17.214Z,19.50
2023-04-09T09:43:20.038Z,19.31
2023-04-09T09:48:22.633Z,19.67
2023-04-09T09:53:27.415Z,18.78
2023-04-09T09:58:37.013Z,18.67
2023-04-09T10:03:41.061Z,19.70
2023-04-09T10:08:47.275Z,19.06
2023-04-09T10:13:54.199Z,18.91
2023-04-09T10:18:58.341Z,18.61
2023-04-09T10:24:05.843Z,19.04
2023-04-09T10:29:13.778Z,19.24
2023-04-09T10:34:17.654Z,19.82
2023-04-09T10:39:22.813Z,20.26
2023-04-09T10:44:27.410Z,18.93
2023-04-09T10:49:37.412Z,18.47
2023-04-09T10:54:49.284Z,18.58
2023-04-09T10:59:53.310Z,19.29
2023-04-09T11:05:07.240Z,18.36
2023-04-09T11:10:11.604Z,19.50
2023-04-09T11:15:17.280Z,18.54
2023-04-09T11:20:22.344Z,19.29
2023-04-09T11:25:28.504Z,19.22
2023-04-09T11:30:31.207Z,19.51
2023-04-09T11:35:35.232Z,18.76
2023-04-09T11:40:47.677Z,18.06
2023-04-09T11:45:50.616Z,18.77
2023-04-09T11:50:53.769Z,17.30
2023-04-09T11:55:57.949Z,16.12
2023-04-09T12:01:01.727Z,17.07
2023-04-09T12:06:07.730Z,19.08
2023-04-09T12:11:13.181Z,19.30
2023-04-09T12:16:20.539Z,17.76
2023-04-09T12:21:26.075Z,16.82
2023-04-09T12:26:30.028Z,18.25
2023-04-09T12:31:32.671Z,19.33
2023-04-09T12:36:35.333Z,18.24
2023-04-09T12:41:39.314Z,16.60
2023-04-09T12:46:42.208Z,17.43
2023-04-09T12:51:44.613Z,17.15
2023-04-09T12:56:50.063Z,17.54
2023-04-09T13:01:52.707Z,16.75
2023-04-09T13:06:55.506Z,16.46
2023-04-09T13:11:59.465Z,17.94
2023-04-09T13:17:02.231Z,17.99
2023-04-09T13:22:07.807Z,16.63
2023-04-09T13:27:11.889Z,16.20
2023-04-09T13:32:14.536Z,17.71
2023-04-09T13:37:17.327Z,17.80
2023-04-09T13:42:21.232Z,17.08
2023-04-09T13:47:24.231Z,16.13
2023-04-09T13:52:29.677Z,15.75
2023-04-09T13:57:33.867Z,15.46
2023-04-09T14:02:36.562Z,17.31
2023-04-09T14:07:39.197Z,18.15
2023-04-09T14:12:44.139Z,18.15
2023-04-09T14:17:46.746Z,18.05
2023-04-09T14:22:49.521Z,18.12
2023-04-09T14:27:53.329Z,19.10
2023-04-09T14:32:55.951Z,17.42
2023-04-09T14:37:58.609Z,16.22
2023-04-09T14:43:02.570Z,16.30
2023-04-09T14:48:05.859Z,16.28
2023-04-09T14:53:08.424Z,16.17
2023-04-09T14:58:12.326Z,15.99
2023-04-09T15:03:15.087Z,16.47
2023-04-09T15:08:17.691Z,16.45
2023-04-09T15:13:22.695Z,16.83
2023-04-09T15:18:25.295Z,17.73
2023-04-09T15:23:27.958Z,18.20
2023-04-09T15:28:31.928Z,18.17
2023-04-09T15:33:34.546Z,18.52
2023-04-09T15:38:37.160Z,18.75
2023-04-09T15:43:41.135Z,17.70
2023-04-09T15:48:43.887Z,16.62
2023-04-09T15:53:46.432Z,16.98
2023-04-09T15:58:50.530Z,16.57
2023-04-09T16:03:53.164Z,16.42
2023-04-09T16:08:56.528Z,16.15
2023-04-09T16:14:00.596Z,15.75
2023-04-09T16:19:03.123Z,16.37
2023-04-09T16:24:05.897Z,17.02
2023-04-09T16:29:09.797Z,17.10
2023-04-09T16:34:13.363Z,17.32
2023-04-09T16:39:16.254Z,17.13
2023-04-09T16:44:20.131Z,16.72
2023-04-09T16:49:22.760Z,16.72
2023-04-09T16:54:25.375Z,15.22
2023-04-09T16:59:29.287Z,15.01
2023-04-09T17:04:34.448Z,14.45
2023-04-09T17:09:37.185Z,13.90
2023-04-09T17:14:41.959Z,13.65
2023-04-09T17:19:44.568Z,13.74
2023-04-09T17:24:47.315Z,13.71
2023-04-09T17:29:51.775Z,13.47
2023-04-09T17:34:54.482Z,13.15
2023-04-09T17:39:57.099Z,12.84
2023-04-09T17:45:01.103Z,12.62
2023-04-09T17:50:04.338Z,12.42
2023-04-09T17:55:07.625Z,12.14
2023-04-09T18:00:12.851Z,11.88
2023-04-09T18:05:15.645Z,11.63
2023-04-09T18:10:18.438Z,11.33
2023-04-09T18:15:23.495Z,11.00
2023-04-09T18:20:26.271Z,10.82
2023-04-09T18:25:28.819Z,10.65
2023-04-09T18:30:32.713Z,10.41
2023-04-09T18:35:35.553Z,10.24
2023-04-09T18:40:41.782Z,9.94
2023-04-09T18:45:45.694Z,9.60
2023-04-09T18:50:48.302Z,9.35
2023-04-09T18:55:50.870Z,9.27
2023-04-09T19:00:55.357Z,9.12
2023-04-09T19:05:59.670Z,8.91
2023-04-09T19:11:02.269Z,8.81
2023-04-09T19:16:09.046Z,8.86
2023-04-09T19:21:11.748Z,8.87
2023-04-09T19:26:14.421Z,8.92
2023-04-09T19:31:18.660Z,8.90
2023-04-09T19:36:22.587Z,8.83
2023-04-09T19:41:25.262Z,8.76
2023-04-09T19:46:29.364Z,8.58
2023-04-09T19:51:32.617Z,8.47
2023-04-09T19:56:35.176Z,8.34
2023-04-09T20:01:39.133Z,8.18
2023-04-09T20:06:43.709Z,8.10
2023-04-09T20:11:46.614Z,8.05
2023-04-09T20:16:50.603Z,7.91
2023-04-09T20:21:54.811Z,7.83
2023-04-09T20:26:59.342Z,7.81
2023-04-09T20:32:03.452Z,7.84
2023-04-09T20:37:06.667Z,7.85
2023-04-09T20:42:09.243Z,7.84
2023-04-09T20:47:13.488Z,7.84
2023-04-09T20:52:16.665Z,7.77
2023-04-09T20:57:19.200Z,7.66
2023-04-09T21:02:23.665Z,7.40
2023-04-09T21:07:26.400Z,7.41
2023-04-09T21:12:30.025Z,7.47
2023-04-09T21:17:33.803Z,7.35
2023-04-09T21:22:36.419Z,7.23
2023-04-09T21:27:38.970Z,7.19
2023-04-09T21:32:43.060Z,7.22
2023-04-09T21:37:45.970Z,7.11
2023-04-09T21:42:48.525Z,7.02
2023-04-09T21:47:52.558Z,6.95
2023-04-09T21:52:55.296Z,6.74
2023-04-09T21:57:57.955Z,6.69
2023-04-09T22:03:02.209Z,6.67
2023-04-09T22:08:04.954Z,6.72
2023-04-09T22:13:07.992Z,6.71
2023-04-09T22:18:11.934Z,6.64
2023-04-09T22:23:14.511Z,6.64
2023-04-09T22:28:17.127Z,6.63
2023-04-09T22:33:21.136Z,6.40
2023-04-09T22:38:23.742Z,6.33
2023-04-09T22:43:26.424Z,6.30
2023-04-09T22:48:30.867Z,6.10
2023-04-09T22:53:33.469Z,6.07
2023-04-09T22:58:36.356Z,6.08
2023-04-09T23:03:40.321Z,6.17
2023-04-09T23:08:42.912Z,6.18
2023-04-09T23:13:45.740Z,6.30
2023-04-09T23:18:49.692Z,6.27
2023-04-09T23:23:52.620Z,6.35
2023-04-09T23:28:55.697Z,6.29
2023-04-09T23:33:59.737Z,6.28
2023-04-09T23:39:02.507Z,6.29
2023-04-09T23:44:05.370Z,6.32
2023-04-09T23:49:09.276Z,6.38
2023-04-09T23:54:11.847Z,6.33
2023-04-09T23:59:14.417Z,6.36
